createdAt,value
2022-12-04T00:00:46.881Z,-0.30
2022-12-04T00:03:25.570Z,-0.40
2022-12-04T00:06:23.498Z,-0.30
2022-12-04T00:09:04.571Z,-0.27
2022-12-04T00:11:50.564Z,-0.29
2022-12-04T00:14:23.843Z,-0.36
2022-12-04T00:17:13.173Z,-0.32
2022-12-04T00:19:41.785Z,-0.32
2022-12-04T00:22:15.841Z,-0.28
2022-12-04T00:24:45.459Z,-0.33
2022-12-04T00:27:31.105Z,-0.36
2022-12-04T00:30:04.716Z,-0.24
2022-12-04T00:32:36.180Z,-0.18
2022-12-04T00:35:14.423Z,-0.21
2022-12-04T00:37:57.023Z,-0.25
2022-12-04T00:40:36.340Z,-0.17
2022-12-04T00:43:16.922Z,-0.21
2022-12-04T00:45:44.231Z,-0.29
2022-12-04T00:48:11.532Z,-0.26
2022-12-04T00:50:39.042Z,-0.30
2022-12-04T00:53:06.288Z,-0.30
2022-12-04T00:55:33.561Z,-0.25
2022-12-04T00:58:00.841Z,-0.22
2022-12-04T01:00:28.211Z,-0.29
2022-12-04T01:02:55.460Z,-0.24
2022-12-04T01:05:22.996Z,-0.27
2022-12-04T01:07:50.321Z,-0.32
2022-12-04T01:10:17.674Z,-0.29
2022-12-04T01:12:44.929Z,-0.25
2022-12-04T01:15:12.470Z,-0.24
2022-12-04T01:17:39.697Z,-0.31
2022-12-04T01:20:07.247Z,-0.34
2022-12-04T01:22:34.490Z,-0.30
2022-12-04T01:25:01.905Z,-0.31
2022-12-04T01:27:29.114Z,-0.29
2022-12-04T01:29:56.640Z,-0.38
2022-12-04T01:32:24.179Z,-0.38
2022-12-04T01:34:51.495Z,-0.38
2022-12-04T01:37:18.981Z,-0.36
2022-12-04T01:39:46.240Z,-0.37
2022-12-04T01:42:15.640Z,-0.33
2022-12-04T01:44:44.217Z,-0.32
2022-12-04T01:47:12.202Z,-0.33
2022-12-04T01:49:46.558Z,-0.28
2022-12-04T01:52:20.161Z,-0.24
2022-12-04T01:54:52.074Z,-0.26
2022-12-04T01:57:22.471Z,-0.21
2022-12-04T01:59:50.850Z,-0.35
2022-12-04T02:02:22.591Z,-0.24
2022-12-04T02:04:50.378Z,-0.19
2022-12-04T02:07:17.605Z,-0.26
2022-12-04T02:09:45.730Z,-0.23
2022-12-04T02:12:50.533Z,-0.27
2022-12-04T02:15:25.627Z,-0.32
2022-12-04T02:18:11.829Z,-0.40
2022-12-04T02:20:51.467Z,-0.43
2022-12-04T02:23:40.303Z,-0.40
2022-12-04T02:26:30.365Z,-0.43
2022-12-04T02:29:05.187Z,-0.38
2022-12-04T02:31:39.438Z,-0.34
2022-12-04T02:34:29.034Z,-0.43
2022-12-04T02:37:17.122Z,-0.36
2022-12-04T02:40:13.917Z,-0.21
2022-12-04T02:43:03.950Z,-0.26
2022-12-04T02:45:34.199Z,-0.33
2022-12-04T02:48:04.159Z,-0.30
2022-12-04T02:50:31.882Z,-0.33
2022-12-04T02:53:12.190Z,-0.21
2022-12-04T02:55:53.877Z,-0.20
2022-12-04T02:58:32.823Z,-0.24
2022-12-04T03:01:02.162Z,-0.28
2022-12-04T03:03:30.307Z,-0.19
2022-12-04T03:06:08.368Z,-0.29
2022-12-04T03:08:46.292Z,-0.20
2022-12-04T03:11:13.713Z,-0.17
2022-12-04T03:13:50.934Z,-0.12
2022-12-04T03:16:31.575Z,-0.08
2022-12-04T03:19:19.051Z,-0.02
2022-12-04T03:21:53.595Z,0.05
2022-12-04T03:24:27.295Z,-0.02
2022-12-04T03:27:04.620Z,-0.08
2022-12-04T03:29:46.308Z,0.11
2022-12-04T03:32:18.010Z,0.11
2022-12-04T03:34:55.679Z,-0.04
2022-12-04T03:37:52.742Z,-0.11
2022-12-04T03:40:39.181Z,-0.11
2022-12-04T03:43:52.436Z,-0.11
2022-12-04T03:46:30.240Z,-0.17
2022-12-04T03:49:02.865Z,-0.11
2022-12-04T03:51:40.400Z,-0.08
2022-12-04T03:54:42.453Z,-0.11
2022-12-04T03:57:15.088Z,-0.15
2022-12-04T04:00:00.846Z,-0.15
2022-12-04T04:02:33.062Z,-0.11
2022-12-04T04:05:01.017Z,-0.12
2022-12-04T04:07:48.288Z,-0.10
2022-12-04T04:10:19.498Z,-0.12
2022-12-04T04:13:11.706Z,-0.11
2022-12-04T04:16:03.743Z,-0.12
2022-12-04T04:18:51.029Z,0.05
2022-12-04T04:21:41.155Z,-0.01
2022-12-04T04:24:14.804Z,-0.10
2022-12-04T04:26:49.705Z,-0.15
2022-12-04T04:29:16.965Z,-0.10
2022-12-04T04:31:53.213Z,-0.07
2022-12-04T04:34:31.457Z,-0.03
2022-12-04T04:37:11.285Z,-0.11
2022-12-04T04:39:53.571Z,-0.15
2022-12-04T04:42:43.675Z,-0.06
2022-12-04T04:45:33.105Z,-0.02
2022-12-04T04:48:10.822Z,0.01
2022-12-04T04:50:39.061Z,-0.05
2022-12-04T04:53:10.057Z,-0.09
2022-12-04T04:55:37.635Z,-0.06
2022-12-04T04:58:14.181Z,-0.11
2022-12-04T05:00:44.930Z,-0.01
2022-12-04T05:03:12.235Z,0.01
2022-12-04T05:05:39.714Z,-0.05
2022-12-04T05:08:06.955Z,-0.04
2022-12-04T05:10:34.270Z,-0.01
2022-12-04T05:13:01.494Z,-0.01
2022-12-04T05:15:28.714Z,0.13
2022-12-04T05:17:55.948Z,0.07
2022-12-04T05:20:23.184Z,0.01
2022-12-04T05:22:50.442Z,0.09
2022-12-04T05:25:17.755Z,0.05
2022-12-04T05:27:45.155Z,0.02
2022-12-04T05:30:12.587Z,0.11
2022-12-04T05:32:39.961Z,0.11
2022-12-04T05:35:11.105Z,0.09
2022-12-04T05:37:40.068Z,0.11
2022-12-04T05:40:08.432Z,0.17
2022-12-04T05:42:35.693Z,0.05
2022-12-04T05:45:03.058Z,0.00
2022-12-04T05:47:30.340Z,0.12
2022-12-04T05:49:58.544Z,0.21
2022-12-04T05:52:25.912Z,0.06
2022-12-04T05:54:53.135Z,0.17
2022-12-04T05:57:21.634Z,0.07
2022-12-04T05:59:51.582Z,0.01
2022-12-04T06:02:19.281Z,-0.02
2022-12-04T06:04:47.091Z,0.09
2022-12-04T06:07:14.494Z,0.10
2022-12-04T06:09:41.718Z,0.10
2022-12-04T06:12:08.970Z,0.16
2022-12-04T06:14:39.516Z,0.16
2022-12-04T06:17:07.654Z,0.07
2022-12-04T06:19:34.966Z,0.12
2022-12-04T06:22:02.243Z,0.18
2022-12-04T06:24:29.501Z,0.13
2022-12-04T06:27:26.326Z,0.22
2022-12-04T06:29:45.239Z,0.08
2022-12-04T06:32:17.787Z,0.16
2022-12-04T06:34:51.582Z,0.19
2022-12-04T06:37:18.870Z,0.25
2022-12-04T06:39:46.186Z,0.19
2022-12-04T06:42:13.449Z,0.33
2022-12-04T06:44:40.846Z,0.28
2022-12-04T06:47:09.130Z,0.22
2022-12-04T06:49:36.502Z,0.18
2022-12-04T06:52:03.859Z,0.26
2022-12-04T06:54:31.173Z,0.30
2022-12-04T06:56:58.465Z,0.21
2022-12-04T06:59:25.819Z,0.11
2022-12-04T07:01:53.169Z,0.15
2022-12-04T07:04:20.610Z,0.15
2022-12-04T07:06:47.831Z,0.17
2022-12-04T07:09:17.117Z,0.27
2022-12-04T07:11:45.158Z,0.31
2022-12-04T07:14:13.386Z,0.26
2022-12-04T07:16:42.474Z,0.14
2022-12-04T07:19:10.638Z,0.17
2022-12-04T07:21:37.975Z,0.09
2022-12-04T07:24:05.290Z,0.14
2022-12-04T07:26:32.616Z,0.18
2022-12-04T07:29:00.267Z,0.25
2022-12-04T07:31:29.404Z,0.20
2022-12-04T07:33:57.560Z,0.19
2022-12-04T07:36:25.746Z,0.27
2022-12-04T07:38:54.319Z,0.38
2022-12-04T07:41:21.627Z,0.40
2022-12-04T07:43:49.158Z,0.41
2022-12-04T07:46:22.262Z,0.44
2022-12-04T07:48:49.668Z,0.39
2022-12-04T07:51:21.949Z,0.42
2022-12-04T07:53:49.955Z,0.39
2022-12-04T07:56:17.777Z,0.44
2022-12-04T07:58:45.222Z,0.45
2022-12-04T08:01:15.050Z,0.39
2022-12-04T08:03:48.199Z,0.37
2022-12-04T08:06:17.473Z,0.37
2022-12-04T08:08:45.083Z,0.37
2022-12-04T08:11:15.594Z,0.33
2022-12-04T08:13:43.093Z,0.36
2022-12-04T08:16:11.974Z,0.44
2022-12-04T08:18:40.061Z,0.35
2022-12-04T08:21:12.157Z,0.46
2022-12-04T08:23:40.513Z,0.54
2022-12-04T08:26:08.667Z,0.69
2022-12-04T08:28:36.545Z,0.65
2022-12-04T08:31:10.267Z,0.60
2022-12-04T08:33:37.682Z,0.78
2022-12-04T08:36:10.040Z,0.81
2022-12-04T08:38:37.614Z,0.86
2022-12-04T08:41:07.019Z,0.74
2022-12-04T08:43:34.212Z,0.64
2022-12-04T08:46:10.337Z,0.66
2022-12-04T08:48:38.007Z,0.66
2022-12-04T08:51:08.108Z,0.59
2022-12-04T08:53:39.009Z,0.66
2022-12-04T08:56:06.565Z,0.61
2022-12-04T08:58:33.838Z,0.60
2022-12-04T09:01:08.945Z,0.65
2022-12-04T09:03:36.422Z,0.77
2022-12-04T09:06:05.058Z,0.76
2022-12-04T09:08:33.887Z,0.77
2022-12-04T09:11:21.067Z,0.82
2022-12-04T09:13:48.701Z,0.87
2022-12-04T09:16:21.699Z,0.75
2022-12-04T09:18:49.378Z,0.81
2022-12-04T09:21:18.479Z,0.74
2022-12-04T09:23:46.033Z,0.74
2022-12-04T09:26:28.345Z,0.87
2022-12-04T09:28:57.926Z,0.84
2022-12-04T09:31:26.381Z,0.81
2022-12-04T09:33:53.816Z,0.75
2022-12-04T09:36:21.307Z,0.73
2022-12-04T09:38:51.028Z,0.81
2022-12-04T09:41:27.249Z,0.91
2022-12-04T09:44:06.989Z,0.82
2022-12-04T09:46:37.422Z,0.75
2022-12-04T09:49:13.765Z,0.86
2022-12-04T09:51:41.911Z,0.87
2022-12-04T09:54:18.120Z,0.83
2022-12-04T09:56:53.722Z,0.86
2022-12-04T09:59:26.470Z,0.83
2022-12-04T10:02:03.878Z,0.82
2022-12-04T10:04:31.135Z,0.90
2022-12-04T10:07:09.334Z,0.87
2022-12-04T10:09:58.968Z,0.79
2022-12-04T10:12:37.828Z,0.81
2022-12-04T10:15:17.273Z,0.86
2022-12-04T10:18:13.715Z,0.86
2022-12-04T10:21:35.736Z,0.89
2022-12-04T10:24:24.215Z,0.90
2022-12-04T10:26:52.336Z,0.90
2022-12-04T10:29:33.377Z,0.93
2022-12-04T10:32:14.260Z,0.99
2022-12-04T10:34:45.626Z,0.98
2022-12-04T10:37:15.538Z,1.02
2022-12-04T10:39:50.308Z,1.08
2022-12-04T10:42:28.538Z,1.04
2022-12-04T10:44:56.316Z,1.07
2022-12-04T10:47:24.875Z,1.02
2022-12-04T10:50:13.576Z,0.95
2022-12-04T10:52:40.811Z,1.01
2022-12-04T10:55:10.979Z,1.02
2022-12-04T10:57:40.666Z,1.04
2022-12-04T11:00:29.794Z,1.02
2022-12-04T11:02:59.798Z,1.06
2022-12-04T11:05:29.959Z,1.03
2022-12-04T11:07:58.225Z,1.12
2022-12-04T11:10:43.366Z,1.13
2022-12-04T11:13:17.834Z,1.10
2022-12-04T11:15:53.196Z,1.16
2022-12-04T11:18:25.081Z,1.26
2022-12-04T11:20:55.398Z,1.30
2022-12-04T11:23:23.349Z,1.24
2022-12-04T11:25:52.810Z,1.30
2022-12-04T11:28:40.516Z,1.28
2022-12-04T11:31:10.896Z,1.26
2022-12-04T11:33:50.280Z,1.22
2022-12-04T11:36:24.652Z,1.23
2022-12-04T11:38:55.011Z,1.21
2022-12-04T11:41:28.597Z,1.27
2022-12-04T11:43:59.971Z,1.25
2022-12-04T11:46:32.378Z,1.27
2022-12-04T11:49:02.465Z,1.37
2022-12-04T11:51:38.755Z,1.29
2022-12-04T11:54:18.724Z,1.39
2022-12-04T11:57:12.713Z,1.23
2022-12-04T12:00:18.706Z,1.34
2022-12-04T12:03:11.078Z,1.35
2022-12-04T12:05:58.371Z,1.33
2022-12-04T12:08:39.377Z,1.37
2022-12-04T12:11:34.912Z,1.35
2022-12-04T12:14:08.726Z,1.32
2022-12-04T12:16:41.477Z,1.44
2022-12-04T12:19:39.597Z,1.45
2022-12-04T12:22:41.051Z,1.37
2022-12-04T12:25:24.228Z,1.40
2022-12-04T12:28:06.526Z,1.40
2022-12-04T12:30:47.344Z,1.30
2022-12-04T12:33:24.040Z,1.34
2022-12-04T12:35:56.483Z,1.47
2022-12-04T12:38:28.326Z,1.45
2022-12-04T12:41:06.155Z,1.41
2022-12-04T12:43:41.123Z,1.40
2022-12-04T12:46:30.107Z,1.51
2022-12-04T12:49:27.862Z,1.63
2022-12-04T12:52:09.582Z,1.65
2022-12-04T12:55:13.129Z,1.54
2022-12-04T12:57:43.586Z,1.55
2022-12-04T13:00:16.046Z,1.65
2022-12-04T13:03:05.385Z,1.68
2022-12-04T13:05:43.739Z,1.65
2022-12-04T13:08:26.281Z,1.68
2022-12-04T13:11:12.204Z,1.76
2022-12-04T13:13:49.645Z,1.66
2022-12-04T13:16:22.091Z,1.68
2022-12-04T13:19:05.842Z,1.66
2022-12-04T13:22:01.537Z,1.73
2022-12-04T13:24:37.561Z,1.71
2022-12-04T13:27:31.999Z,1.63
2022-12-04T13:30:24.208Z,1.65
2022-12-04T13:33:16.036Z,1.67
2022-12-04T13:36:08.509Z,1.62
2022-12-04T13:38:58.635Z,1.66
2022-12-04T13:41:29.385Z,1.58
2022-12-04T13:43:59.712Z,1.57
2022-12-04T13:46:39.597Z,1.59
2022-12-04T13:49:22.105Z,1.57
2022-12-04T13:51:50.082Z,1.63
2022-12-04T13:54:17.292Z,1.66
2022-12-04T13:56:46.777Z,1.67
2022-12-04T13:59:32.226Z,1.63
2022-12-04T14:02:07.747Z,1.63
2022-12-04T14:04:48.007Z,1.65
2022-12-04T14:07:34.036Z,1.63
2022-12-04T14:10:08.282Z,1.72
2022-12-04T14:12:40.768Z,1.74
2022-12-04T14:15:18.705Z,1.88
2022-12-04T14:18:02.142Z,1.85
2022-12-04T14:20:34.112Z,1.82
2022-12-04T14:23:18.006Z,1.90
2022-12-04T14:25:45.244Z,1.73
2022-12-04T14:28:41.660Z,1.82
2022-12-04T14:31:19.570Z,1.67
2022-12-04T14:34:17.698Z,1.76
2022-12-04T14:36:46.796Z,1.80
2022-12-04T14:39:33.240Z,1.75
2022-12-04T14:42:14.414Z,1.93
2022-12-04T14:44:42.025Z,1.91
2022-12-04T14:47:15.220Z,1.74
2022-12-04T14:50:02.530Z,1.84
2022-12-04T14:52:47.723Z,1.79
2022-12-04T14:55:25.810Z,1.84
2022-12-04T14:58:24.932Z,1.83
2022-12-04T15:00:54.101Z,1.66
2022-12-04T15:03:21.951Z,1.72
2022-12-04T15:05:51.462Z,1.78
2022-12-04T15:08:20.868Z,1.74
2022-12-04T15:11:10.426Z,1.69
2022-12-04T15:13:39.166Z,1.67
2022-12-04T15:16:23.575Z,1.72
2022-12-04T15:18:59.951Z,1.69
2022-12-04T15:21:40.307Z,1.76
2022-12-04T15:24:24.309Z,1.74
2022-12-04T15:26:53.707Z,1.75
2022-12-04T15:29:21.892Z,1.75
2022-12-04T15:31:56.897Z,1.80
2022-12-04T15:34:38.205Z,1.85
2022-12-04T15:37:09.240Z,1.86
2022-12-04T15:39:38.005Z,1.84
2022-12-04T15:42:16.753Z,1.81
2022-12-04T15:45:21.701Z,1.80
2022-12-04T15:47:48.840Z,1.80
2022-12-04T15:50:16.144Z,1.79
2022-12-04T15:53:07.224Z,1.78
2022-12-04T15:55:46.979Z,1.79
2022-12-04T15:58:27.766Z,1.82
2022-12-04T16:00:57.241Z,1.80
2022-12-04T16:03:36.317Z,1.73
2022-12-04T16:06:24.003Z,1.69
2022-12-04T16:08:56.383Z,1.77
2022-12-04T16:11:39.142Z,1.76
2022-12-04T16:14:16.134Z,1.74
2022-12-04T16:16:46.267Z,1.65
2022-12-04T16:19:35.548Z,1.71
2022-12-04T16:22:03.760Z,1.68
2022-12-04T16:24:31.071Z,1.73
2022-12-04T16:27:00.233Z,1.69
2022-12-04T16:29:27.659Z,1.70
2022-12-04T16:32:01.239Z,1.67
2022-12-04T16:34:30.598Z,1.71
2022-12-04T16:36:58.104Z,1.70
2022-12-04T16:39:25.508Z,1.70
2022-12-04T16:41:54.028Z,1.65
2022-12-04T16:44:21.416Z,1.76
2022-12-04T16:46:51.811Z,1.77
2022-12-04T16:49:19.281Z,1.83
2022-12-04T16:51:49.878Z,1.88
2022-12-04T16:54:17.291Z,1.85
2022-12-04T16:56:44.747Z,1.91
2022-12-04T16:59:13.165Z,1.86
2022-12-04T17:01:48.439Z,2.05
2022-12-04T17:04:17.035Z,2.06
2022-12-04T17:06:44.978Z,2.04
2022-12-04T17:09:13.375Z,1.87
2022-12-04T17:11:41.059Z,1.87
2022-12-04T17:14:08.503Z,1.88
2022-12-04T17:16:37.211Z,1.82
2022-12-04T17:19:05.078Z,1.90
2022-12-04T17:21:32.378Z,1.93
2022-12-04T17:23:59.919Z,2.01
2022-12-04T17:26:27.840Z,1.91
2022-12-04T17:28:55.266Z,1.85
2022-12-04T17:31:24.920Z,1.91
2022-12-04T17:33:52.532Z,1.94
2022-12-04T17:36:22.525Z,1.91
2022-12-04T17:38:54.311Z,1.94
2022-12-04T17:41:21.784Z,2.00
2022-12-04T17:43:49.226Z,2.03
2022-12-04T17:46:20.494Z,2.04
2022-12-04T17:48:48.435Z,1.90
2022-12-04T17:51:19.707Z,1.92
2022-12-04T17:53:47.624Z,1.91
2022-12-04T17:56:17.688Z,1.94
2022-12-04T17:58:46.042Z,1.94
2022-12-04T18:01:18.864Z,2.00
2022-12-04T18:03:57.530Z,2.05
2022-12-04T18:06:37.613Z,1.95
2022-12-04T18:09:06.846Z,1.91
2022-12-04T18:11:39.406Z,1.98
2022-12-04T18:14:12.618Z,2.03
2022-12-04T18:16:46.002Z,2.02
2022-12-04T18:19:14.457Z,2.00
2022-12-04T18:21:42.101Z,1.99
2022-12-04T18:24:09.786Z,1.98
2022-12-04T18:26:42.150Z,2.05
2022-12-04T18:29:11.010Z,2.04
2022-12-04T18:31:38.423Z,2.06
2022-12-04T18:34:06.916Z,1.99
2022-12-04T18:36:35.683Z,1.99
2022-12-04T18:39:06.316Z,2.07
2022-12-04T18:41:33.659Z,2.04
2022-12-04T18:44:01.053Z,2.01
2022-12-04T18:46:28.372Z,2.04
2022-12-04T18:48:58.937Z,2.03
2022-12-04T18:51:33.064Z,2.00
2022-12-04T18:54:11.027Z,2.02
2022-12-04T18:56:38.395Z,2.03
2022-12-04T18:59:12.902Z,2.03
2022-12-04T19:01:41.522Z,2.01
2022-12-04T19:04:10.829Z,2.04
2022-12-04T19:06:42.396Z,2.15
2022-12-04T19:09:13.895Z,2.19
2022-12-04T19:11:41.644Z,2.18
2022-12-04T19:14:17.677Z,2.14
2022-12-04T19:16:50.174Z,2.23
2022-12-04T19:19:17.811Z,2.12
2022-12-04T19:21:45.356Z,2.10
2022-12-04T19:24:13.700Z,2.17
2022-12-04T19:26:41.247Z,2.24
2022-12-04T19:29:12.976Z,2.17
2022-12-04T19:31:41.752Z,2.15
2022-12-04T19:34:09.159Z,2.12
2022-12-04T19:36:36.606Z,2.20
2022-12-04T19:39:05.227Z,2.18
2022-12-04T19:41:37.428Z,2.15
2022-12-04T19:44:20.020Z,2.15
2022-12-04T19:46:52.259Z,2.22
2022-12-04T19:49:19.689Z,2.27
2022-12-04T19:51:47.786Z,2.28
2022-12-04T19:54:15.987Z,2.23
2022-12-04T19:56:46.211Z,2.28
2022-12-04T19:59:13.849Z,2.27
2022-12-04T20:01:41.218Z,2.29
2022-12-04T20:04:09.229Z,2.23
2022-12-04T20:06:45.159Z,2.32
2022-12-04T20:09:15.778Z,2.24
2022-12-04T20:11:43.310Z,2.28
2022-12-04T20:14:10.891Z,2.21
2022-12-04T20:16:38.680Z,2.27
2022-12-04T20:19:08.051Z,2.27
2022-12-04T20:21:35.551Z,2.30
2022-12-04T20:24:05.666Z,2.35
2022-12-04T20:26:38.356Z,2.33
2022-12-04T20:29:07.331Z,2.33
2022-12-04T20:31:36.475Z,2.32
2022-12-04T20:34:06.086Z,2.35
2022-12-04T20:36:37.811Z,2.43
2022-12-04T20:39:05.884Z,2.38
2022-12-04T20:41:33.635Z,2.33
2022-12-04T20:44:03.446Z,2.35
2022-12-04T20:46:33.727Z,2.46
2022-12-04T20:49:02.535Z,2.46
2022-12-04T20:51:32.708Z,2.47
2022-12-04T20:54:02.228Z,2.49
2022-12-04T20:59:20.292Z,2.44
2022-12-04T21:01:49.321Z,2.46
2022-12-04T21:04:24.797Z,2.43
2022-12-04T21:06:52.254Z,2.43
2022-12-04T21:09:22.410Z,2.46
2022-12-04T21:11:54.177Z,2.50
2022-12-04T21:14:47.084Z,2.53
2022-12-04T21:17:18.878Z,2.52
2022-12-04T21:19:49.751Z,2.62
2022-12-04T21:22:19.318Z,2.63
2022-12-04T21:24:46.647Z,2.67
2022-12-04T21:29:56.265Z,2.60
2022-12-04T21:32:23.796Z,2.52
2022-12-04T21:34:52.007Z,2.49
2022-12-04T21:37:19.431Z,2.54
2022-12-04T21:39:55.425Z,2.50
2022-12-04T21:42:34.440Z,2.56
2022-12-04T21:45:04.357Z,2.61
2022-12-04T21:47:33.013Z,2.52
2022-12-04T21:50:00.636Z,2.55
2022-12-04T21:52:28.716Z,2.55
2022-12-04T21:54:56.172Z,2.59
2022-12-04T21:57:29.292Z,2.53
2022-12-04T21:59:56.984Z,2.50
2022-12-04T22:02:26.765Z,2.50
2022-12-04T22:04:54.419Z,2.61
2022-12-04T22:07:21.870Z,2.63
2022-12-04T22:09:50.166Z,2.58
2022-12-04T22:12:47.821Z,2.55
2022-12-04T22:15:14.190Z,2.71
2022-12-04T22:17:43.564Z,2.63
2022-12-04T22:20:11.270Z,2.59
2022-12-04T22:22:38.625Z,2.58
2022-12-04T22:25:06.164Z,2.57
2022-12-04T22:27:34.542Z,2.59
2022-12-04T22:30:02.392Z,2.58
2022-12-04T22:32:29.856Z,2.58
2022-12-04T22:34:57.124Z,2.53
2022-12-04T22:37:25.341Z,2.66
2022-12-04T22:39:52.558Z,2.59
2022-12-04T22:42:19.811Z,2.61
2022-12-04T22:44:47.054Z,2.51
2022-12-04T22:47:14.311Z,2.57
2022-12-04T22:49:41.640Z,2.55
2022-12-04T22:52:08.975Z,2.57
2022-12-04T22:54:36.289Z,2.60
2022-12-04T22:57:03.948Z,2.57
2022-12-04T22:59:31.352Z,2.57
2022-12-04T23:02:00.311Z,2.53
2022-12-04T23:04:29.388Z,2.51
2022-12-04T23:06:57.718Z,2.49
2022-12-04T23:09:26.164Z,2.47
2022-12-04T23:11:54.508Z,2.46
2022-12-04T23:14:22.122Z,2.50
2022-12-04T23:16:49.785Z,2.60
2022-12-04T23:19:19.034Z,2.54
2022-12-04T23:21:49.679Z,2.55
2022-12-04T23:24:21.054Z,2.54
2022-12-04T23:26:48.723Z,2.59
2022-12-04T23:29:44.809Z,2.56
2022-12-04T23:32:03.828Z,2.52
2022-12-04T23:34:31.174Z,2.56
2022-12-04T23:36:58.458Z,2.50
2022-12-04T23:39:25.703Z,2.46
2022-12-04T23:41:52.968Z,2.51
2022-12-04T23:44:20.318Z,2.50
2022-12-04T23:46:48.879Z,2.51
2022-12-04T23:49:16.165Z,2.49
2022-12-04T23:51:43.433Z,2.49
2022-12-04T23:54:10.803Z,2.50
2022-12-04T23:56:38.259Z,2.50
2022-12-04T23:59:05.785Z,2.53
